sensor_id;sensor_type;location;lat;lon;timestamp;pressure;altitude;pressure_sealevel;temperature
51547;BMP180;37542;50.164;9.086;2022-09-24T00:01:29;100459.00;;;17.30
51547;BMP180;37542;50.164;9.086;2022-09-24T00:05:10;100461.00;;;17.30
51547;BMP180;37542;50.164;9.086;2022-09-24T00:08:54;100447.00;;;17.30
51547;BMP180;37542;50.164;9.086;2022-09-24T00:12:35;100455.00;;;17.30
51547;BMP180;37542;50.164;9.086;2022-09-24T00:16:19;100460.00;;;17.30
51547;BMP180;37542;50.164;9.086;2022-09-24T00:20:01;100454.00;;;17.30
51547;BMP180;37542;50.164;9.086;2022-09-24T00:23:42;100418.00;;;17.20
51547;BMP180;37542;50.164;9.086;2022-09-24T00:27:23;100427.00;;;17.20
51547;BMP180;37542;50.164;9.086;2022-09-24T00:31:06;100458.00;;;17.20
51547;BMP180;37542;50.164;9.086;2022-09-24T00:34:46;100449.00;;;17.20
51547;BMP180;37542;50.164;9.086;2022-09-24T00:38:29;100456.00;;;17.20
51547;BMP180;37542;50.164;9.086;2022-09-24T00:42:10;100434.00;;;17.20
51547;BMP180;37542;50.164;9.086;2022-09-24T00:50:16;100449.00;;;17.10
51547;BMP180;37542;50.164;9.086;2022-09-24T00:54:06;100439.00;;;17.10
51547;BMP180;37542;50.164;9.086;2022-09-24T00:57:51;100437.00;;;17.10
51547;BMP180;37542;50.164;9.086;2022-09-24T01:01:32;100448.00;;;17.10
51547;BMP180;37542;50.164;9.086;2022-09-24T01:05:13;100426.00;;;17.10
51547;BMP180;37542;50.164;9.086;2022-09-24T01:08:55;100408.00;;;17.10
51547;BMP180;37542;50.164;9.086;2022-09-24T01:12:52;100422.00;;;17.10
51547;BMP180;37542;50.164;9.086;2022-09-24T01:21:28;100411.00;;;17.10
51547;BMP180;37542;50.164;9.086;2022-09-24T01:30:04;100402.00;;;17.10
51547;BMP180;37542;50.164;9.086;2022-09-24T01:33:49;100385.00;;;17.10
51547;BMP180;37542;50.164;9.086;2022-09-24T01:37:35;100399.00;;;17.00
51547;BMP180;37542;50.164;9.086;2022-09-24T01:41:18;100379.00;;;17.00
51547;BMP180;37542;50.164;9.086;2022-09-24T01:45:00;100373.00;;;17.00
51547;BMP180;37542;50.164;9.086;2022-09-24T01:48:41;100372.00;;;17.00
51547;BMP180;37542;50.164;9.086;2022-09-24T01:52:34;100358.00;;;16.90
51547;BMP180;37542;50.164;9.086;2022-09-24T01:56:27;100364.00;;;16.90
51547;BMP180;37542;50.164;9.086;2022-09-24T02:00:14;100337.00;;;17.00
51547;BMP180;37542;50.164;9.086;2022-09-24T02:04:02;100354.00;;;16.90
51547;BMP180;37542;50.164;9.086;2022-09-24T02:08:25;100359.00;;;16.90
51547;BMP180;37542;50.164;9.086;2022-09-24T02:12:17;100356.00;;;16.90
51547;BMP180;37542;50.164;9.086;2022-09-24T02:16:02;100357.00;;;16.80
51547;BMP180;37542;50.164;9.086;2022-09-24T02:19:48;100364.00;;;16.80
51547;BMP180;37542;50.164;9.086;2022-09-24T02:23:32;100344.00;;;16.70
51547;BMP180;37542;50.164;9.086;2022-09-24T02:27:17;100355.00;;;16.70
51547;BMP180;37542;50.164;9.086;2022-09-24T02:31:13;100355.00;;;16.60
51547;BMP180;37542;50.164;9.086;2022-09-24T02:35:01;100345.00;;;16.60
51547;BMP180;37542;50.164;9.086;2022-09-24T02:38:42;100350.00;;;16.50
51547;BMP180;37542;50.164;9.086;2022-09-24T02:42:25;100340.00;;;16.50
51547;BMP180;37542;50.164;9.086;2022-09-24T02:46:06;100342.00;;;16.50
51547;BMP180;37542;50.164;9.086;2022-09-24T02:49:50;100326.00;;;16.40
51547;BMP180;37542;50.164;9.086;2022-09-24T02:53:31;100344.00;;;16.40
51547;BMP180;37542;50.164;9.086;2022-09-24T02:57:12;100350.00;;;16.30
51547;BMP180;37542;50.164;9.086;2022-09-24T03:00:54;100335.00;;;16.20
51547;BMP180;37542;50.164;9.086;2022-09-24T03:04:35;100344.00;;;16.20
51547;BMP180;37542;50.164;9.086;2022-09-24T03:08:15;100354.00;;;16.10
51547;BMP180;37542;50.164;9.086;2022-09-24T03:11:56;100344.00;;;16.10
51547;BMP180;37542;50.164;9.086;2022-09-24T03:15:40;100356.00;;;16.00
51547;BMP180;37542;50.164;9.086;2022-09-24T03:19:21;100345.00;;;15.90
51547;BMP180;37542;50.164;9.086;2022-09-24T03:23:01;100339.00;;;15.90
51547;BMP180;37542;50.164;9.086;2022-09-24T03:26:42;100361.00;;;15.80
51547;BMP180;37542;50.164;9.086;2022-09-24T03:30:23;100359.00;;;15.80
51547;BMP180;37542;50.164;9.086;2022-09-24T03:34:22;100352.00;;;15.70
51547;BMP180;37542;50.164;9.086;2022-09-24T03:38:03;100354.00;;;15.60
51547;BMP180;37542;50.164;9.086;2022-09-24T03:41:44;100359.00;;;15.60
51547;BMP180;37542;50.164;9.086;2022-09-24T03:45:24;100369.00;;;15.50
51547;BMP180;37542;50.164;9.086;2022-09-24T03:49:05;100349.00;;;15.50
51547;BMP180;37542;50.164;9.086;2022-09-24T03:52:46;100364.00;;;15.40
51547;BMP180;37542;50.164;9.086;2022-09-24T03:56:27;100370.00;;;15.30
51547;BMP180;37542;50.164;9.086;2022-09-24T04:00:08;100372.00;;;15.30
51547;BMP180;37542;50.164;9.086;2022-09-24T04:03:49;100370.00;;;15.20
51547;BMP180;37542;50.164;9.086;2022-09-24T04:07:30;100343.00;;;15.20
51547;BMP180;37542;50.164;9.086;2022-09-24T04:11:11;100346.00;;;15.10
51547;BMP180;37542;50.164;9.086;2022-09-24T04:14:52;100336.00;;;15.10
51547;BMP180;37542;50.164;9.086;2022-09-24T04:18:33;100338.00;;;15.00
51547;BMP180;37542;50.164;9.086;2022-09-24T04:22:14;100333.00;;;15.00
51547;BMP180;37542;50.164;9.086;2022-09-24T04:25:56;100331.00;;;15.00
51547;BMP180;37542;50.164;9.086;2022-09-24T04:29:38;100318.00;;;14.90
51547;BMP180;37542;50.164;9.086;2022-09-24T04:33:19;100323.00;;;14.90
51547;BMP180;37542;50.164;9.086;2022-09-24T04:37:00;100310.00;;;14.80
51547;BMP180;37542;50.164;9.086;2022-09-24T04:40:41;100305.00;;;14.80
51547;BMP180;37542;50.164;9.086;2022-09-24T04:44:21;100301.00;;;14.80
51547;BMP180;37542;50.164;9.086;2022-09-24T04:48:03;100311.00;;;14.70
51547;BMP180;37542;50.164;9.086;2022-09-24T04:51:44;100301.00;;;14.70
51547;BMP180;37542;50.164;9.086;2022-09-24T04:55:25;100300.00;;;14.60
51547;BMP180;37542;50.164;9.086;2022-09-24T04:59:07;100313.00;;;14.60
51547;BMP180;37542;50.164;9.086;2022-09-24T05:02:56;100305.00;;;14.60
51547;BMP180;37542;50.164;9.086;2022-09-24T05:06:37;100304.00;;;14.60
51547;BMP180;37542;50.164;9.086;2022-09-24T05:10:18;100306.00;;;14.60
51547;BMP180;37542;50.164;9.086;2022-09-24T05:13:59;100320.00;;;14.60
51547;BMP180;37542;50.164;9.086;2022-09-24T05:17:40;100326.00;;;14.50
51547;BMP180;37542;50.164;9.086;2022-09-24T05:21:21;100308.00;;;14.50
51547;BMP180;37542;50.164;9.086;2022-09-24T05:25:02;100337.00;;;14.50
51547;BMP180;37542;50.164;9.086;2022-09-24T05:28:43;100335.00;;;14.50
51547;BMP180;37542;50.164;9.086;2022-09-24T05:32:24;100324.00;;;14.50
51547;BMP180;37542;50.164;9.086;2022-09-24T05:36:05;100347.00;;;14.50
51547;BMP180;37542;50.164;9.086;2022-09-24T05:39:46;100354.00;;;14.50
51547;BMP180;37542;50.164;9.086;2022-09-24T05:43:26;100353.00;;;14.50
51547;BMP180;37542;50.164;9.086;2022-09-24T05:47:08;100333.00;;;14.50
51547;BMP180;37542;50.164;9.086;2022-09-24T05:50:49;100346.00;;;14.60
51547;BMP180;37542;50.164;9.086;2022-09-24T05:54:34;100313.00;;;14.60
51547;BMP180;37542;50.164;9.086;2022-09-24T05:58:19;100311.00;;;14.60
51547;BMP180;37542;50.164;9.086;2022-09-24T06:02:00;100333.00;;;14.60
51547;BMP180;37542;50.164;9.086;2022-09-24T06:05:46;100307.00;;;14.70
51547;BMP180;37542;50.164;9.086;2022-09-24T06:09:28;100330.00;;;14.60
51547;BMP180;37542;50.164;9.086;2022-09-24T06:13:09;100375.00;;;14.80
51547;BMP180;37542;50.164;9.086;2022-09-24T06:16:51;100277.00;;;14.90
51547;BMP180;37542;50.164;9.086;2022-09-24T06:20:32;100291.00;;;14.90
51547;BMP180;37542;50.164;9.086;2022-09-24T06:24:13;100321.00;;;15.00
51547;BMP180;37542;50.164;9.086;2022-09-24T06:28:01;100260.00;;;14.80
51547;BMP180;37542;50.164;9.086;2022-09-24T06:31:43;100346.00;;;15.10
51547;BMP180;37542;50.164;9.086;2022-09-24T06:35:25;100309.00;;;15.20
51547;BMP180;37542;50.164;9.086;2022-09-24T06:39:06;100347.00;;;15.30
51547;BMP180;37542;50.164;9.086;2022-09-24T06:42:51;100356.00;;;15.40
51547;BMP180;37542;50.164;9.086;2022-09-24T06:47:13;100351.00;;;15.50
51547;BMP180;37542;50.164;9.086;2022-09-24T06:50:54;100341.00;;;15.60
51547;BMP180;37542;50.164;9.086;2022-09-24T06:54:35;100338.00;;;15.60
51547;BMP180;37542;50.164;9.086;2022-09-24T06:58:19;100358.00;;;15.70
51547;BMP180;37542;50.164;9.086;2022-09-24T07:02:00;100351.00;;;15.80
51547;BMP180;37542;50.164;9.086;2022-09-24T07:05:41;100353.00;;;16.00
51547;BMP180;37542;50.164;9.086;2022-09-24T07:09:22;100357.00;;;16.10
51547;BMP180;37542;50.164;9.086;2022-09-24T07:13:29;100290.00;;;16.10
51547;BMP180;37542;50.164;9.086;2022-09-24T07:17:10;100361.00;;;16.20
51547;BMP180;37542;50.164;9.086;2022-09-24T07:20:57;100283.00;;;16.20
51547;BMP180;37542;50.164;9.086;2022-09-24T07:24:56;100246.00;;;16.30
51547;BMP180;37542;50.164;9.086;2022-09-24T07:28:37;100334.00;;;16.30
51547;BMP180;37542;50.164;9.086;2022-09-24T07:32:17;100347.00;;;16.40
51547;BMP180;37542;50.164;9.086;2022-09-24T07:36:03;100356.00;;;16.40
51547;BMP180;37542;50.164;9.086;2022-09-24T07:39:45;100352.00;;;16.40
51547;BMP180;37542;50.164;9.086;2022-09-24T07:56:02;100270.00;;;17.00
51547;BMP180;37542;50.164;9.086;2022-09-24T07:59:46;100312.00;;;17.10
51547;BMP180;37542;50.164;9.086;2022-09-24T08:03:28;100346.00;;;17.00
51547;BMP180;37542;50.164;9.086;2022-09-24T08:07:38;100269.00;;;17.40
51547;BMP180;37542;50.164;9.086;2022-09-24T08:11:20;100320.00;;;17.60
51547;BMP180;37542;50.164;9.086;2022-09-24T08:15:36;100306.00;;;17.70
51547;BMP180;37542;50.164;9.086;2022-09-24T08:19:25;100316.00;;;17.80
51547;BMP180;37542;50.164;9.086;2022-09-24T08:23:08;100314.00;;;17.90
51547;BMP180;37542;50.164;9.086;2022-09-24T08:31:48;100344.00;;;18.20
51547;BMP180;37542;50.164;9.086;2022-09-24T08:35:29;100332.00;;;18.40
51547;BMP180;37542;50.164;9.086;2022-09-24T08:39:58;100398.00;;;18.60
51547;BMP180;37542;50.164;9.086;2022-09-24T08:59:25;100376.00;;;19.60
51547;BMP180;37542;50.164;9.086;2022-09-24T09:03:53;100379.00;;;19.80
51547;BMP180;37542;50.164;9.086;2022-09-24T09:08:32;100306.00;;;20.00
51547;BMP180;37542;50.164;9.086;2022-09-24T09:13:48;100362.00;;;20.20
51547;BMP180;37542;50.164;9.086;2022-09-24T09:17:05;100359.00;;;20.40
51547;BMP180;37542;50.164;9.086;2022-09-24T09:20:50;100355.00;;;20.50
51547;BMP180;37542;50.164;9.086;2022-09-24T09:24:46;100352.00;;;20.70
51547;BMP180;37542;50.164;9.086;2022-09-24T09:28:39;100322.00;;;20.90
51547;BMP180;37542;50.164;9.086;2022-09-24T09:50:49;100320.00;;;21.80
51547;BMP180;37542;50.164;9.086;2022-09-24T09:54:44;100357.00;;;21.90
51547;BMP180;37542;50.164;9.086;2022-09-24T10:02:58;100300.00;;;22.10
51547;BMP180;37542;50.164;9.086;2022-09-24T10:06:39;100290.00;;;22.30
51547;BMP180;37542;50.164;9.086;2022-09-24T10:30:29;100331.00;;;23.10
51547;BMP180;37542;50.164;9.086;2022-09-24T10:39:30;100253.00;;;23.40
51547;BMP180;37542;50.164;9.086;2022-09-24T10:51:50;100316.00;;;23.70
51547;BMP180;37542;50.164;9.086;2022-09-24T10:55:52;100319.00;;;23.70
51547;BMP180;37542;50.164;9.086;2022-09-24T12:10:05;100175.00;;;25.50
51547;BMP180;37542;50.164;9.086;2022-09-24T12:13:59;100217.00;;;25.60
51547;BMP180;37542;50.164;9.086;2022-09-24T12:22:25;100205.00;;;25.80
51547;BMP180;37542;50.164;9.086;2022-09-24T12:26:10;100222.00;;;26.10
51547;BMP180;37542;50.164;9.086;2022-09-24T12:34:57;100240.00;;;26.50
51547;BMP180;37542;50.164;9.086;2022-09-24T12:38:46;100253.00;;;26.60
51547;BMP180;37542;50.164;9.086;2022-09-24T12:42:37;100265.00;;;26.70
51547;BMP180;37542;50.164;9.086;2022-09-24T12:46:34;100243.00;;;26.80
51547;BMP180;37542;50.164;9.086;2022-09-24T12:50:26;100247.00;;;26.80
51547;BMP180;37542;50.164;9.086;2022-09-24T12:54:27;100245.00;;;26.70
51547;BMP180;37542;50.164;9.086;2022-09-24T12:58:36;100240.00;;;26.80
51547;BMP180;37542;50.164;9.086;2022-09-24T13:02:45;100232.00;;;26.80
51547;BMP180;37542;50.164;9.086;2022-09-24T13:06:35;100236.00;;;26.90
51547;BMP180;37542;50.164;9.086;2022-09-24T13:14:34;100236.00;;;27.10
51547;BMP180;37542;50.164;9.086;2022-09-24T13:29:20;100185.00;;;27.30
51547;BMP180;37542;50.164;9.086;2022-09-24T13:43:24;100220.00;;;27.30
51547;BMP180;37542;50.164;9.086;2022-09-24T13:57:41;100148.00;;;27.20
51547;BMP180;37542;50.164;9.086;2022-09-24T14:01:54;100185.00;;;27.40
51547;BMP180;37542;50.164;9.086;2022-09-24T14:05:44;100175.00;;;27.50
51547;BMP180;37542;50.164;9.086;2022-09-24T14:10:20;100231.00;;;27.60
51547;BMP180;37542;50.164;9.086;2022-09-24T14:14:53;100164.00;;;27.60
51547;BMP180;37542;50.164;9.086;2022-09-24T14:19:00;100206.00;;;27.70
51547;BMP180;37542;50.164;9.086;2022-09-24T14:23:09;100147.00;;;27.50
51547;BMP180;37542;50.164;9.086;2022-09-24T14:27:19;100139.00;;;27.60
51547;BMP180;37542;50.164;9.086;2022-09-24T14:31:09;100172.00;;;27.50
51547;BMP180;37542;50.164;9.086;2022-09-24T14:46:07;100147.00;;;27.20
51547;BMP180;37542;50.164;9.086;2022-09-24T15:05:03;100147.00;;;27.00
51547;BMP180;37542;50.164;9.086;2022-09-24T15:09:33;100181.00;;;27.00
51547;BMP180;37542;50.164;9.086;2022-09-24T15:17:48;100184.00;;;26.80
51547;BMP180;37542;50.164;9.086;2022-09-24T15:21:29;100185.00;;;26.70
51547;BMP180;37542;50.164;9.086;2022-09-24T15:25:12;100188.00;;;26.70
51547;BMP180;37542;50.164;9.086;2022-09-24T15:28:56;100178.00;;;26.70
51547;BMP180;37542;50.164;9.086;2022-09-24T15:32:37;100181.00;;;26.70
51547;BMP180;37542;50.164;9.086;2022-09-24T15:36:18;100174.00;;;26.60
51547;BMP180;37542;50.164;9.086;2022-09-24T15:40:15;100189.00;;;26.50
51547;BMP180;37542;50.164;9.086;2022-09-24T15:43:58;100183.00;;;26.50
51547;BMP180;37542;50.164;9.086;2022-09-24T15:47:39;100184.00;;;26.40
51547;BMP180;37542;50.164;9.086;2022-09-24T15:51:21;100178.00;;;26.30
51547;BMP180;37542;50.164;9.086;2022-09-24T15:55:14;100160.00;;;26.30
51547;BMP180;37542;50.164;9.086;2022-09-24T15:58:56;100176.00;;;26.20
51547;BMP180;37542;50.164;9.086;2022-09-24T16:02:37;100181.00;;;26.20
51547;BMP180;37542;50.164;9.086;2022-09-24T16:06:20;100180.00;;;26.20
51547;BMP180;37542;50.164;9.086;2022-09-24T16:10:04;100181.00;;;26.10
51547;BMP180;37542;50.164;9.086;2022-09-24T16:13:44;100181.00;;;26.00
51547;BMP180;37542;50.164;9.086;2022-09-24T16:17:26;100188.00;;;25.90
51547;BMP180;37542;50.164;9.086;2022-09-24T16:21:07;100183.00;;;25.80
51547;BMP180;37542;50.164;9.086;2022-09-24T16:24:48;100180.00;;;25.80
51547;BMP180;37542;50.164;9.086;2022-09-24T16:28:30;100177.00;;;25.80
51547;BMP180;37542;50.164;9.086;2022-09-24T16:32:10;100187.00;;;25.70
51547;BMP180;37542;50.164;9.086;2022-09-24T16:35:53;100177.00;;;25.60
51547;BMP180;37542;50.164;9.086;2022-09-24T16:39:34;100184.00;;;25.60
51547;BMP180;37542;50.164;9.086;2022-09-24T16:43:15;100190.00;;;25.50
51547;BMP180;37542;50.164;9.086;2022-09-24T16:46:56;100189.00;;;25.40
51547;BMP180;37542;50.164;9.086;2022-09-24T16:50:39;100200.00;;;25.30
51547;BMP180;37542;50.164;9.086;2022-09-24T16:54:20;100200.00;;;25.30
51547;BMP180;37542;50.164;9.086;2022-09-24T16:58:02;100198.00;;;25.20
51547;BMP180;37542;50.164;9.086;2022-09-24T17:11:32;100139.00;;;24.90
51547;BMP180;37542;50.164;9.086;2022-09-24T17:15:16;100127.00;;;24.80
51547;BMP180;37542;50.164;9.086;2022-09-24T17:18:58;100193.00;;;24.80
51547;BMP180;37542;50.164;9.086;2022-09-24T17:22:39;100210.00;;;24.70
51547;BMP180;37542;50.164;9.086;2022-09-24T17:26:21;100201.00;;;24.70
51547;BMP180;37542;50.164;9.086;2022-09-24T17:30:27;100205.00;;;24.60
51547;BMP180;37542;50.164;9.086;2022-09-24T17:34:09;100216.00;;;24.60
51547;BMP180;37542;50.164;9.086;2022-09-24T17:37:51;100200.00;;;24.60
51547;BMP180;37542;50.164;9.086;2022-09-24T17:41:35;100218.00;;;24.50
51547;BMP180;37542;50.164;9.086;2022-09-24T17:45:16;100218.00;;;24.50
51547;BMP180;37542;50.164;9.086;2022-09-24T17:49:16;100236.00;;;24.40
51547;BMP180;37542;50.164;9.086;2022-09-24T17:53:30;100223.00;;;24.30
51547;BMP180;37542;50.164;9.086;2022-09-24T17:57:11;100211.00;;;24.20
51547;BMP180;37542;50.164;9.086;2022-09-24T18:01:34;100183.00;;;24.20
51547;BMP180;37542;50.164;9.086;2022-09-24T18:05:45;100211.00;;;24.10
51547;BMP180;37542;50.164;9.086;2022-09-24T18:10:21;100227.00;;;23.90
51547;BMP180;37542;50.164;9.086;2022-09-24T18:14:03;100252.00;;;23.80
51547;BMP180;37542;50.164;9.086;2022-09-24T18:17:46;100171.00;;;23.70
51547;BMP180;37542;50.164;9.086;2022-09-24T18:21:36;100235.00;;;23.50
51547;BMP180;37542;50.164;9.086;2022-09-24T18:26:04;100241.00;;;23.50
51547;BMP180;37542;50.164;9.086;2022-09-24T18:30:14;100251.00;;;23.20
51547;BMP180;37542;50.164;9.086;2022-09-24T18:34:10;100244.00;;;23.20
51547;BMP180;37542;50.164;9.086;2022-09-24T18:38:06;100218.00;;;22.90
51547;BMP180;37542;50.164;9.086;2022-09-24T18:42:11;100180.00;;;23.00
51547;BMP180;37542;50.164;9.086;2022-09-24T18:46:05;100243.00;;;23.00
51547;BMP180;37542;50.164;9.086;2022-09-24T18:49:46;100256.00;;;22.80
51547;BMP180;37542;50.164;9.086;2022-09-24T18:53:28;100262.00;;;22.80
51547;BMP180;37542;50.164;9.086;2022-09-24T18:57:10;100261.00;;;22.80
51547;BMP180;37542;50.164;9.086;2022-09-24T19:00:58;100253.00;;;22.70
51547;BMP180;37542;50.164;9.086;2022-09-24T19:04:49;100247.00;;;22.60
51547;BMP180;37542;50.164;9.086;2022-09-24T19:13:20;100229.00;;;22.40
51547;BMP180;37542;50.164;9.086;2022-09-24T19:17:04;100182.00;;;22.40
51547;BMP180;37542;50.164;9.086;2022-09-24T19:25:49;100192.00;;;22.30
51547;BMP180;37542;50.164;9.086;2022-09-24T19:34:36;100289.00;;;22.20
51547;BMP180;37542;50.164;9.086;2022-09-24T19:38:55;100293.00;;;22.20
51547;BMP180;37542;50.164;9.086;2022-09-24T19:42:44;100261.00;;;22.00
51547;BMP180;37542;50.164;9.086;2022-09-24T19:46:37;100330.00;;;21.90
51547;BMP180;37542;50.164;9.086;2022-09-24T19:50:33;100281.00;;;21.80
51547;BMP180;37542;50.164;9.086;2022-09-24T19:54:22;100348.00;;;21.50
51547;BMP180;37542;50.164;9.086;2022-09-24T19:58:06;100330.00;;;21.60
51547;BMP180;37542;50.164;9.086;2022-09-24T20:01:47;100295.00;;;21.60
51547;BMP180;37542;50.164;9.086;2022-09-24T20:05:28;100305.00;;;21.50
51547;BMP180;37542;50.164;9.086;2022-09-24T20:09:26;100339.00;;;21.40
51547;BMP180;37542;50.164;9.086;2022-09-24T20:13:08;100240.00;;;21.30
51547;BMP180;37542;50.164;9.086;2022-09-24T20:16:57;100368.00;;;20.90
51547;BMP180;37542;50.164;9.086;2022-09-24T20:20:39;100286.00;;;20.90
51547;BMP180;37542;50.164;9.086;2022-09-24T20:24:20;100333.00;;;21.00
51547;BMP180;37542;50.164;9.086;2022-09-24T20:28:02;100294.00;;;21.00
51547;BMP180;37542;50.164;9.086;2022-09-24T20:32:08;100286.00;;;20.90
51547;BMP180;37542;50.164;9.086;2022-09-24T20:35:58;100283.00;;;21.00
51547;BMP180;37542;50.164;9.086;2022-09-24T20:39:43;100347.00;;;21.00
51547;BMP180;37542;50.164;9.086;2022-09-24T20:53:42;100307.00;;;20.80
51547;BMP180;37542;50.164;9.086;2022-09-24T20:57:36;100318.00;;;20.70
51547;BMP180;37542;50.164;9.086;2022-09-24T21:06:13;100239.00;;;20.70
51547;BMP180;37542;50.164;9.086;2022-09-24T21:39:03;100334.00;;;20.70
51547;BMP180;37542;50.164;9.086;2022-09-24T21:42:56;100321.00;;;20.60
51547;BMP180;37542;50.164;9.086;2022-09-24T21:51:13;100351.00;;;20.60
51547;BMP180;37542;50.164;9.086;2022-09-24T21:55:23;100235.00;;;20.40
51547;BMP180;37542;50.164;9.086;2022-09-24T21:59:06;100298.00;;;20.60
51547;BMP180;37542;50.164;9.086;2022-09-24T22:03:16;100301.00;;;20.60
51547;BMP180;37542;50.164;9.086;2022-09-24T22:07:15;100335.00;;;20.60
51547;BMP180;37542;50.164;9.086;2022-09-24T22:15:37;100306.00;;;20.60
51547;BMP180;37542;50.164;9.086;2022-09-24T22:19:52;100326.00;;;20.60
51547;BMP180;37542;50.164;9.086;2022-09-24T22:24:33;100304.00;;;20.40
51547;BMP180;37542;50.164;9.086;2022-09-24T22:28:29;100263.00;;;20.60
51547;BMP180;37542;50.164;9.086;2022-09-24T22:42:07;100342.00;;;20.50
51547;BMP180;37542;50.164;9.086;2022-09-24T22:46:06;100278.00;;;20.60
51547;BMP180;37542;50.164;9.086;2022-09-24T22:50:27;100278.00;;;20.50
51547;BMP180;37542;50.164;9.086;2022-09-24T22:54:23;100271.00;;;20.50
51547;BMP180;37542;50.164;9.086;2022-09-24T22:58:09;100288.00;;;20.40
51547;BMP180;37542;50.164;9.086;2022-09-24T23:01:55;100303.00;;;20.30
51547;BMP180;37542;50.164;9.086;2022-09-24T23:05:36;100330.00;;;20.30
51547;BMP180;37542;50.164;9.086;2022-09-24T23:09:20;100302.00;;;20.30
51547;BMP180;37542;50.164;9.086;2022-09-24T23:13:15;100313.00;;;20.40
51547;BMP180;37542;50.164;9.086;2022-09-24T23:16:58;100361.00;;;20.10
51547;BMP180;37542;50.164;9.086;2022-09-24T23:20:41;100307.00;;;20.30
51547;BMP180;37542;50.164;9.086;2022-09-24T23:24:23;100319.00;;;20.20
51547;BMP180;37542;50.164;9.086;2022-09-24T23:28:04;100276.00;;;20.20
51547;BMP180;37542;50.164;9.086;2022-09-24T23:31:44;100296.00;;;20.20
51547;BMP180;37542;50.164;9.086;2022-09-24T23:35:25;100292.00;;;20.20
51547;BMP180;37542;50.164;9.086;2022-09-24T23:39:06;100310.00;;;20.20
51547;BMP180;37542;50.164;9.086;2022-09-24T23:42:47;100308.00;;;20.20
51547;BMP180;37542;50.164;9.086;2022-09-24T23:46:29;100304.00;;;20.10
51547;BMP180;37542;50.164;9.086;2022-09-24T23:50:13;100284.00;;;20.00
51547;BMP180;37542;50.164;9.086;2022-09-24T23:53:54;100310.00;;;20.10
51547;BMP180;37542;50.164;9.086;2022-09-24T23:57:34;100295.00;;;20.00
